createdAt,value
2022-08-27T00:00:58.093Z,1004.47
2022-08-27T00:01:58.173Z,1004.49
2022-08-27T00:02:58.172Z,1004.49
2022-08-27T00:03:58.299Z,1004.48
2022-08-27T00:04:58.109Z,1004.48
2022-08-27T00:05:58.093Z,1004.47
2022-08-27T00:07:01.190Z,1004.45
2022-08-27T00:07:58.258Z,1004.47
2022-08-27T00:08:58.565Z,1004.48
2022-08-27T00:09:58.253Z,1004.51
2022-08-27T00:10:59.504Z,1004.49
2022-08-27T00:11:58.631Z,1004.47
2022-08-27T00:12:57.879Z,1004.48
2022-08-27T00:13:58.294Z,1004.49
2022-08-27T00:14:58.423Z,1004.49
2022-08-27T00:15:57.664Z,1004.47
2022-08-27T00:16:58.138Z,1004.47
2022-08-27T00:17:58.374Z,1004.43
2022-08-27T00:18:58.643Z,1004.39
2022-08-27T00:19:58.086Z,1004.39
2022-08-27T00:20:58.296Z,1004.4
2022-08-27T00:21:58.729Z,1004.38
2022-08-27T00:22:58.124Z,1004.35
2022-08-27T00:23:58.097Z,1004.39
2022-08-27T00:24:58.209Z,1004.4
2022-08-27T00:25:59.121Z,1004.33
2022-08-27T00:26:58.130Z,1004.33
2022-08-27T00:27:58.094Z,1004.32
2022-08-27T00:28:58.099Z,1004.35
2022-08-27T00:29:58.103Z,1004.33
2022-08-27T00:30:58.120Z,1004.36
2022-08-27T00:31:58.177Z,1004.38
2022-08-27T00:32:58.180Z,1004.39
2022-08-27T00:33:58.105Z,1004.38
2022-08-27T00:34:58.085Z,1004.43
2022-08-27T00:35:58.093Z,1004.38
2022-08-27T00:36:58.410Z,1004.39
2022-08-27T00:37:58.079Z,1004.36
2022-08-27T00:38:58.264Z,1004.36
2022-08-27T00:39:58.328Z,1004.34
2022-08-27T00:40:58.410Z,1004.34
2022-08-27T00:41:58.192Z,1004.34
2022-08-27T00:42:58.416Z,1004.37
2022-08-27T00:43:58.442Z,1004.36
2022-08-27T00:44:59.223Z,1004.33
2022-08-27T00:45:58.305Z,1004.35
2022-08-27T00:46:58.552Z,1004.33
2022-08-27T00:47:58.935Z,1004.3
2022-08-27T00:48:58.359Z,1004.33
2022-08-27T00:49:58.405Z,1004.31
2022-08-27T00:50:58.160Z,1004.34
2022-08-27T00:51:58.315Z,1004.33
2022-08-27T00:52:58.623Z,1004.33
2022-08-27T00:53:58.734Z,1004.3
2022-08-27T00:54:58.648Z,1004.29
2022-08-27T00:55:59.578Z,1004.32
2022-08-27T00:56:59.283Z,1004.32
2022-08-27T00:57:58.262Z,1004.27
2022-08-27T00:58:58.418Z,1004.33
2022-08-27T00:59:58.538Z,1004.37
2022-08-27T01:00:59.020Z,1004.33
2022-08-27T01:01:58.593Z,1004.36
2022-08-27T01:02:58.887Z,1004.37
2022-08-27T01:03:58.478Z,1004.42
2022-08-27T01:04:58.095Z,1004.36
2022-08-27T01:05:58.314Z,1004.4
2022-08-27T01:06:58.491Z,1004.39
2022-08-27T01:07:58.794Z,1004.41
2022-08-27T01:08:58.304Z,1004.36
2022-08-27T01:09:58.467Z,1004.38
2022-08-27T01:10:58.376Z,1004.37
2022-08-27T01:11:58.694Z,1004.4
2022-08-27T01:12:59.347Z,1004.42
2022-08-27T01:14:02.905Z,1004.41
2022-08-27T01:14:58.217Z,1004.42
2022-08-27T01:15:58.131Z,1004.43
2022-08-27T01:16:58.180Z,1004.43
2022-08-27T01:17:58.123Z,1004.42
2022-08-27T01:18:58.448Z,1004.42
2022-08-27T01:19:58.085Z,1004.46
2022-08-27T01:20:58.099Z,1004.45
2022-08-27T01:21:58.323Z,1004.42
2022-08-27T01:22:58.114Z,1004.42
2022-08-27T01:23:58.098Z,1004.44
2022-08-27T01:24:58.100Z,1004.46
2022-08-27T01:25:58.107Z,1004.44
2022-08-27T01:26:58.114Z,1004.44
2022-08-27T01:27:58.105Z,1004.44
2022-08-27T01:28:58.117Z,1004.45
2022-08-27T01:29:58.115Z,1004.42
2022-08-27T01:30:58.250Z,1004.43
2022-08-27T01:31:58.204Z,1004.43
2022-08-27T01:32:58.106Z,1004.4
2022-08-27T01:33:58.110Z,1004.39
2022-08-27T01:34:58.095Z,1004.38
2022-08-27T01:35:58.088Z,1004.39
2022-08-27T01:37:01.100Z,1004.39
2022-08-27T01:38:02.104Z,1004.39
2022-08-27T01:39:01.149Z,1004.38
2022-08-27T01:40:01.178Z,1004.39
2022-08-27T01:40:58.106Z,1004.42
2022-08-27T01:41:58.161Z,1004.39
2022-08-27T01:42:58.219Z,1004.44
2022-08-27T01:43:58.098Z,1004.46
2022-08-27T01:44:58.105Z,1004.5
2022-08-27T01:45:58.100Z,1004.48
2022-08-27T01:46:58.149Z,1004.54
2022-08-27T01:47:58.093Z,1004.51
2022-08-27T01:48:58.129Z,1004.53
2022-08-27T01:49:58.100Z,1004.56
2022-08-27T01:50:59.244Z,1004.54
2022-08-27T01:51:58.140Z,1004.59
2022-08-27T01:52:58.118Z,1004.58
2022-08-27T01:53:58.115Z,1004.57
2022-08-27T01:54:58.105Z,1004.59
2022-08-27T01:55:58.097Z,1004.55
2022-08-27T01:57:01.120Z,1004.52
2022-08-27T01:57:58.100Z,1004.55
2022-08-27T01:58:58.158Z,1004.55
2022-08-27T01:59:58.185Z,1004.56
2022-08-27T02:00:59.179Z,1004.55
2022-08-27T02:01:58.199Z,1004.54
2022-08-27T02:02:58.103Z,1004.52
2022-08-27T02:03:58.103Z,1004.52
2022-08-27T02:04:58.117Z,1004.53
2022-08-27T02:05:58.104Z,1004.54
2022-08-27T02:06:58.121Z,1004.56
2022-08-27T02:07:58.107Z,1004.54
2022-08-27T02:08:58.121Z,1004.56
2022-08-27T02:09:58.100Z,1004.58
2022-08-27T02:10:58.096Z,1004.58
2022-08-27T02:11:58.127Z,1004.59
2022-08-27T02:12:58.125Z,1004.61
2022-08-27T02:13:58.109Z,1004.63
2022-08-27T02:14:58.235Z,1004.61
2022-08-27T02:15:58.186Z,1004.58
2022-08-27T02:16:58.127Z,1004.61
2022-08-27T02:17:58.105Z,1004.58
2022-08-27T02:18:59.106Z,1004.61
2022-08-27T02:19:58.104Z,1004.63
2022-08-27T02:20:58.112Z,1004.62
2022-08-27T02:21:58.124Z,1004.65
2022-08-27T02:22:58.174Z,1004.64
2022-08-27T02:23:58.112Z,1004.64
2022-08-27T02:24:58.238Z,1004.62
2022-08-27T02:25:58.097Z,1004.61
2022-08-27T02:26:58.146Z,1004.58
2022-08-27T02:27:58.082Z,1004.6
2022-08-27T02:28:58.185Z,1004.55
2022-08-27T02:29:58.082Z,1004.56
2022-08-27T02:30:58.347Z,1004.5
2022-08-27T02:31:58.195Z,1004.5
2022-08-27T02:32:58.125Z,1004.5
2022-08-27T02:33:58.123Z,1004.49
2022-08-27T02:34:58.415Z,1004.51
2022-08-27T02:35:58.487Z,1004.52
2022-08-27T02:36:58.413Z,1004.53
2022-08-27T02:37:58.223Z,1004.54
2022-08-27T02:38:58.240Z,1004.6
2022-08-27T02:39:58.285Z,1004.58
2022-08-27T02:40:58.528Z,1004.57
2022-08-27T02:41:58.155Z,1004.63
2022-08-27T02:42:58.390Z,1004.62
2022-08-27T02:44:01.508Z,1004.62
2022-08-27T02:44:58.102Z,1004.66
2022-08-27T02:45:58.125Z,1004.63
2022-08-27T02:46:58.159Z,1004.61
2022-08-27T02:47:58.114Z,1004.65
2022-08-27T02:48:58.115Z,1004.62
2022-08-27T02:49:58.088Z,1004.62
2022-08-27T02:50:58.101Z,1004.64
2022-08-27T02:51:58.115Z,1004.64
2022-08-27T02:52:58.098Z,1004.61
2022-08-27T02:53:59.102Z,1004.59
2022-08-27T02:54:59.116Z,1004.59
2022-08-27T02:55:58.110Z,1004.63
2022-08-27T02:56:58.103Z,1004.61
2022-08-27T02:57:58.192Z,1004.61
2022-08-27T02:58:58.098Z,1004.61
2022-08-27T02:59:58.118Z,1004.61
2022-08-27T03:00:58.095Z,1004.55
2022-08-27T03:01:58.224Z,1004.59
2022-08-27T03:02:58.138Z,1004.59
2022-08-27T03:03:58.113Z,1004.62
2022-08-27T03:04:58.089Z,1004.61
2022-08-27T03:05:58.097Z,1004.58
2022-08-27T03:06:58.108Z,1004.56
2022-08-27T03:07:58.099Z,1004.6
2022-08-27T03:08:58.135Z,1004.57
2022-08-27T03:09:58.103Z,1004.57
2022-08-27T03:10:58.098Z,1004.56
2022-08-27T03:11:58.238Z,1004.57
2022-08-27T03:12:58.098Z,1004.56
2022-08-27T03:13:58.110Z,1004.56
2022-08-27T03:14:58.110Z,1004.55
2022-08-27T03:15:58.150Z,1004.54
2022-08-27T03:16:58.103Z,1004.57
2022-08-27T03:17:58.090Z,1004.6
2022-08-27T03:18:58.078Z,1004.59
2022-08-27T03:19:58.100Z,1004.57
2022-08-27T03:20:58.085Z,1004.58
2022-08-27T03:21:58.863Z,1004.59
2022-08-27T03:22:58.321Z,1004.56
2022-08-27T03:24:09.670Z,1004.59
2022-08-27T03:24:58.884Z,1004.58
2022-08-27T03:25:57.901Z,1004.64
2022-08-27T03:26:58.132Z,1004.68
2022-08-27T03:27:58.440Z,1004.65
2022-08-27T03:28:58.123Z,1004.68
2022-08-27T03:30:04.448Z,1004.64
2022-08-27T03:30:58.574Z,1004.67
2022-08-27T03:31:58.709Z,1004.67
2022-08-27T03:32:58.149Z,1004.67
2022-08-27T03:33:58.813Z,1004.66
2022-08-27T03:34:58.725Z,1004.67
2022-08-27T03:35:58.095Z,1004.69
2022-08-27T03:36:58.134Z,1004.68
2022-08-27T03:37:58.098Z,1004.67
2022-08-27T03:38:58.101Z,1004.68
2022-08-27T03:39:58.115Z,1004.66
2022-08-27T03:40:58.093Z,1004.72
2022-08-27T03:41:58.112Z,1004.69
2022-08-27T03:42:58.276Z,1004.72
2022-08-27T03:43:58.176Z,1004.72
2022-08-27T03:44:58.200Z,1004.73
2022-08-27T03:46:03.979Z,1004.74
2022-08-27T03:46:58.129Z,1004.72
2022-08-27T03:47:58.075Z,1004.72
2022-08-27T03:49:01.107Z,1004.75
2022-08-27T03:49:58.144Z,1004.75
2022-08-27T03:50:58.440Z,1004.71
2022-08-27T03:51:58.270Z,1004.74
2022-08-27T03:52:58.080Z,1004.76
2022-08-27T03:53:58.404Z,1004.75
2022-08-27T03:54:58.176Z,1004.77
2022-08-27T03:55:58.388Z,1004.76
2022-08-27T03:56:58.206Z,1004.79
2022-08-27T03:57:58.474Z,1004.79
2022-08-27T03:58:58.188Z,1004.82
2022-08-27T03:59:58.106Z,1004.79
2022-08-27T04:00:58.402Z,1004.77
2022-08-27T04:01:58.770Z,1004.79
2022-08-27T04:02:58.431Z,1004.77
2022-08-27T04:03:58.636Z,1004.79
2022-08-27T04:04:58.946Z,1004.84
2022-08-27T04:05:58.061Z,1004.8
2022-08-27T04:07:01.751Z,1004.82
2022-08-27T04:07:58.261Z,1004.84
2022-08-27T04:08:58.512Z,1004.81
2022-08-27T04:09:58.232Z,1004.82
2022-08-27T04:10:58.138Z,1004.77
2022-08-27T04:11:58.443Z,1004.85
2022-08-27T04:12:58.692Z,1004.84
2022-08-27T04:13:58.666Z,1004.82
2022-08-27T04:14:58.592Z,1004.82
2022-08-27T04:15:58.622Z,1004.79
2022-08-27T04:16:58.243Z,1004.81
2022-08-27T04:17:58.465Z,1004.81
2022-08-27T04:18:58.615Z,1004.82
2022-08-27T04:19:59.148Z,1004.83
2022-08-27T04:20:58.411Z,1004.82
2022-08-27T04:21:58.453Z,1004.84
2022-08-27T04:22:58.073Z,1004.85
2022-08-27T04:23:58.313Z,1004.85
2022-08-27T04:24:58.545Z,1004.86
2022-08-27T04:25:58.183Z,1004.87
2022-08-27T04:26:58.188Z,1004.84
2022-08-27T04:27:58.453Z,1004.86
2022-08-27T04:28:58.095Z,1004.84
2022-08-27T04:29:58.227Z,1004.85
2022-08-27T04:30:58.434Z,1004.85
2022-08-27T04:31:58.100Z,1004.83
2022-08-27T04:32:58.119Z,1004.82
2022-08-27T04:33:58.421Z,1004.86
2022-08-27T04:34:58.179Z,1004.85
2022-08-27T04:35:58.104Z,1004.86
2022-08-27T04:36:58.426Z,1004.9
2022-08-27T04:37:58.403Z,1004.87
2022-08-27T04:38:58.096Z,1004.9
2022-08-27T04:39:58.131Z,1004.9
2022-08-27T04:40:58.113Z,1004.96
2022-08-27T04:41:58.098Z,1004.96
2022-08-27T04:42:58.113Z,1004.99
2022-08-27T04:43:58.140Z,1004.99
2022-08-27T04:44:58.125Z,1005.01
2022-08-27T04:45:58.140Z,1005.02
2022-08-27T04:46:58.183Z,1005.04
2022-08-27T04:47:59.256Z,1005.01
2022-08-27T04:48:58.104Z,1005.06
2022-08-27T04:50:05.199Z,1005.09
2022-08-27T04:50:58.105Z,1005.07
2022-08-27T04:51:58.096Z,1005.09
2022-08-27T04:52:58.103Z,1005.11
2022-08-27T04:54:01.209Z,1005.1
2022-08-27T04:54:58.105Z,1005.11
2022-08-27T04:55:58.098Z,1005.11
2022-08-27T04:56:58.204Z,1005.11
2022-08-27T04:57:58.112Z,1005.09
2022-08-27T04:58:58.108Z,1005.09
2022-08-27T04:59:58.113Z,1005.09
2022-08-27T05:00:58.097Z,1005.09
2022-08-27T05:01:58.154Z,1005.07
2022-08-27T05:02:58.111Z,1005.07
2022-08-27T05:03:58.106Z,1005.06
2022-08-27T05:04:58.149Z,1005.06
2022-08-27T05:05:58.122Z,1005.08
2022-08-27T05:06:58.118Z,1005.05
2022-08-27T05:07:58.114Z,1005.08
2022-08-27T05:08:58.119Z,1005.08
2022-08-27T05:09:58.135Z,1005.12
2022-08-27T05:10:58.136Z,1005.04
2022-08-27T05:11:58.101Z,1005.1
2022-08-27T05:13:02.115Z,1005.08
2022-08-27T05:13:58.106Z,1005.12
2022-08-27T05:14:58.103Z,1005.16
2022-08-27T05:15:58.182Z,1005.18
2022-08-27T05:16:58.131Z,1005.17
2022-08-27T05:17:58.112Z,1005.14
2022-08-27T05:18:58.109Z,1005.15
2022-08-27T05:19:58.131Z,1005.18
2022-08-27T05:20:58.103Z,1005.18
2022-08-27T05:21:58.205Z,1005.18
2022-08-27T05:22:58.098Z,1005.19
2022-08-27T05:23:58.091Z,1005.2
2022-08-27T05:24:58.102Z,1005.17
2022-08-27T05:25:58.116Z,1005.16
2022-08-27T05:26:58.111Z,1005.18
2022-08-27T05:27:58.107Z,1005.18
2022-08-27T05:28:58.097Z,1005.15
2022-08-27T05:29:58.116Z,1005.12
2022-08-27T05:30:59.173Z,1005.17
2022-08-27T05:31:58.103Z,1005.16
2022-08-27T05:32:58.113Z,1005.18
2022-08-27T05:33:59.106Z,1005.16
2022-08-27T05:34:58.092Z,1005.18
2022-08-27T05:35:58.095Z,1005.2
2022-08-27T05:36:58.096Z,1005.19
2022-08-27T05:37:58.079Z,1005.2
2022-08-27T05:38:58.106Z,1005.19
2022-08-27T05:39:58.091Z,1005.19
2022-08-27T05:40:58.107Z,1005.2
2022-08-27T05:41:58.153Z,1005.19
2022-08-27T05:42:58.428Z,1005.17
2022-08-27T05:43:58.218Z,1005.19
2022-08-27T05:44:58.079Z,1005.19
2022-08-27T05:45:58.447Z,1005.24
2022-08-27T05:46:58.091Z,1005.26
2022-08-27T05:47:58.094Z,1005.25
2022-08-27T05:48:59.244Z,1005.28
2022-08-27T05:49:58.458Z,1005.3
2022-08-27T05:50:58.155Z,1005.3
2022-08-27T05:51:58.393Z,1005.3
2022-08-27T05:52:58.380Z,1005.31
2022-08-27T05:53:58.107Z,1005.35
2022-08-27T05:54:58.358Z,1005.36
2022-08-27T05:55:58.096Z,1005.34
2022-08-27T05:56:58.101Z,1005.31
2022-08-27T05:57:58.114Z,1005.38
2022-08-27T05:58:58.103Z,1005.34
2022-08-27T05:59:58.091Z,1005.35
2022-08-27T06:01:10.045Z,1005.32
2022-08-27T06:01:58.105Z,1005.36
2022-08-27T06:02:58.125Z,1005.36
2022-08-27T06:03:58.190Z,1005.32
2022-08-27T06:04:58.166Z,1005.34
2022-08-27T06:05:58.092Z,1005.37
2022-08-27T06:06:58.209Z,1005.34
2022-08-27T06:07:58.097Z,1005.35
2022-08-27T06:08:59.106Z,1005.36
2022-08-27T06:09:58.101Z,1005.37
2022-08-27T06:10:58.106Z,1005.4
2022-08-27T06:11:58.105Z,1005.39
2022-08-27T06:13:01.108Z,1005.36
2022-08-27T06:13:58.174Z,1005.42
2022-08-27T06:14:58.120Z,1005.42
2022-08-27T06:15:58.178Z,1005.37
2022-08-27T06:16:58.134Z,1005.4
2022-08-27T06:17:58.221Z,1005.39
2022-08-27T06:18:58.085Z,1005.41
2022-08-27T06:19:58.092Z,1005.4
2022-08-27T06:20:58.107Z,1005.41
2022-08-27T06:22:10.201Z,1005.4
2022-08-27T06:22:58.112Z,1005.4
2022-08-27T06:23:58.094Z,1005.41
2022-08-27T06:24:58.112Z,1005.42
2022-08-27T06:25:58.100Z,1005.38
2022-08-27T06:26:58.118Z,1005.37
2022-08-27T06:27:58.338Z,1005.4
2022-08-27T06:28:58.104Z,1005.33
2022-08-27T06:29:58.093Z,1005.35
2022-08-27T06:30:58.115Z,1005.36
2022-08-27T06:31:58.088Z,1005.37
2022-08-27T06:32:58.085Z,1005.38
2022-08-27T06:33:58.101Z,1005.42
2022-08-27T06:34:58.149Z,1005.4
2022-08-27T06:35:58.726Z,1005.36
2022-08-27T06:36:59.228Z,1005.39
2022-08-27T06:37:58.369Z,1005.43
2022-08-27T06:38:59.279Z,1005.41
2022-08-27T06:39:58.697Z,1005.39
2022-08-27T06:40:58.023Z,1005.43
2022-08-27T06:41:58.254Z,1005.4
2022-08-27T06:42:58.599Z,1005.43
2022-08-27T06:43:57.854Z,1005.4
2022-08-27T06:44:58.387Z,1005.41
2022-08-27T06:45:58.591Z,1005.43
2022-08-27T06:46:57.912Z,1005.43
2022-08-27T06:47:58.432Z,1005.44
2022-08-27T06:48:58.775Z,1005.41
2022-08-27T06:49:58.774Z,1005.41
2022-08-27T06:50:58.305Z,1005.42
2022-08-27T06:51:58.109Z,1005.4
2022-08-27T06:52:58.132Z,1005.38
2022-08-27T06:53:58.074Z,1005.4
2022-08-27T06:54:58.100Z,1005.41
2022-08-27T06:55:58.108Z,1005.41
2022-08-27T06:56:58.082Z,1005.44
2022-08-27T06:57:58.297Z,1005.41
2022-08-27T06:58:58.163Z,1005.4
2022-08-27T06:59:58.302Z,1005.42
2022-08-27T07:00:58.253Z,1005.43
2022-08-27T07:01:58.418Z,1005.42
2022-08-27T07:02:58.189Z,1005.43
2022-08-27T07:03:59.439Z,1005.42
2022-08-27T07:04:59.518Z,1005.45
2022-08-27T07:05:58.086Z,1005.46
2022-08-27T07:06:58.302Z,1005.45
2022-08-27T07:07:58.474Z,1005.44
2022-08-27T07:08:58.219Z,1005.43
2022-08-27T07:09:58.270Z,1005.44
2022-08-27T07:10:58.551Z,1005.45
2022-08-27T07:11:58.089Z,1005.4
2022-08-27T07:12:58.274Z,1005.39
2022-08-27T07:13:58.140Z,1005.41
2022-08-27T07:15:00.655Z,1005.38
2022-08-27T07:16:02.399Z,1005.39
2022-08-27T07:16:58.271Z,1005.38
2022-08-27T07:17:59.298Z,1005.42
2022-08-27T07:19:01.840Z,1005.39
2022-08-27T07:19:58.085Z,1005.4
2022-08-27T07:20:58.137Z,1005.41
2022-08-27T07:21:58.393Z,1005.44
2022-08-27T07:22:58.713Z,1005.42
2022-08-27T07:23:58.345Z,1005.44
2022-08-27T07:24:58.406Z,1005.42
2022-08-27T07:25:58.411Z,1005.43
2022-08-27T07:26:58.674Z,1005.46
2022-08-27T07:27:58.312Z,1005.47
2022-08-27T07:28:58.617Z,1005.45
2022-08-27T07:29:58.829Z,1005.48
2022-08-27T07:30:59.258Z,1005.44
2022-08-27T07:31:58.363Z,1005.46
2022-08-27T07:32:58.379Z,1005.46
2022-08-27T07:33:58.670Z,1005.48
2022-08-27T07:34:58.795Z,1005.49
2022-08-27T07:35:59.439Z,1005.5
2022-08-27T07:36:58.152Z,1005.5
2022-08-27T07:37:58.240Z,1005.53
2022-08-27T07:39:02.732Z,1005.49
2022-08-27T07:39:58.148Z,1005.49
2022-08-27T07:40:58.389Z,1005.51
2022-08-27T07:41:58.233Z,1005.48
2022-08-27T07:42:58.151Z,1005.54
2022-08-27T07:43:59.275Z,1005.55
2022-08-27T07:44:58.224Z,1005.55
2022-08-27T07:45:58.580Z,1005.54
2022-08-27T07:46:58.210Z,1005.55
2022-08-27T07:47:58.106Z,1005.57
2022-08-27T07:48:58.403Z,1005.58
2022-08-27T07:49:58.154Z,1005.6
2022-08-27T07:50:58.102Z,1005.6
2022-08-27T07:51:58.196Z,1005.63
2022-08-27T07:52:58.406Z,1005.65
2022-08-27T07:53:58.105Z,1005.65
2022-08-27T07:54:58.112Z,1005.63
2022-08-27T07:55:58.112Z,1005.64
2022-08-27T07:56:59.161Z,1005.65
2022-08-27T07:57:58.122Z,1005.61
2022-08-27T07:58:58.105Z,1005.63
2022-08-27T07:59:58.106Z,1005.62
2022-08-27T08:00:58.139Z,1005.62
2022-08-27T08:01:58.104Z,1005.65
2022-08-27T08:02:59.206Z,1005.69
2022-08-27T08:03:58.108Z,1005.69
2022-08-27T08:04:58.132Z,1005.65
2022-08-27T08:05:58.109Z,1005.68
2022-08-27T08:06:58.151Z,1005.67
2022-08-27T08:07:58.111Z,1005.7
2022-08-27T08:08:58.110Z,1005.74
2022-08-27T08:09:58.116Z,1005.73
2022-08-27T08:10:58.104Z,1005.71
2022-08-27T08:11:58.103Z,1005.69
2022-08-27T08:12:58.101Z,1005.72
2022-08-27T08:13:58.100Z,1005.73
2022-08-27T08:14:58.095Z,1005.77
2022-08-27T08:15:58.103Z,1005.72
2022-08-27T08:16:58.121Z,1005.74
2022-08-27T08:17:58.113Z,1005.77
2022-08-27T08:18:58.350Z,1005.81
2022-08-27T08:20:23.969Z,1005.78
2022-08-27T08:21:01.113Z,1005.77
2022-08-27T08:22:07.413Z,1005.78
2022-08-27T08:22:58.098Z,1005.74
2022-08-27T08:23:58.110Z,1005.73
2022-08-27T08:24:58.110Z,1005.74
2022-08-27T08:25:58.134Z,1005.73
2022-08-27T08:26:58.236Z,1005.71
2022-08-27T08:28:01.251Z,1005.77
2022-08-27T08:28:58.105Z,1005.76
2022-08-27T08:29:58.109Z,1005.77
2022-08-27T08:30:58.186Z,1005.74
2022-08-27T08:31:58.093Z,1005.75
2022-08-27T08:32:58.108Z,1005.8
2022-08-27T08:33:58.105Z,1005.77
2022-08-27T08:34:58.103Z,1005.79
2022-08-27T08:35:58.098Z,1005.78
2022-08-27T08:36:58.175Z,1005.8
2022-08-27T08:37:58.113Z,1005.76
2022-08-27T08:38:58.133Z,1005.76
2022-08-27T08:39:58.248Z,1005.78
2022-08-27T08:40:58.095Z,1005.77
2022-08-27T08:41:58.235Z,1005.74
2022-08-27T08:42:58.104Z,1005.75
2022-08-27T08:44:00.162Z,1005.72
2022-08-27T08:44:58.235Z,1005.69
2022-08-27T08:45:58.164Z,1005.71
2022-08-27T08:46:58.092Z,1005.7
2022-08-27T08:47:58.094Z,1005.69
2022-08-27T08:48:58.121Z,1005.67
2022-08-27T08:49:58.106Z,1005.65
2022-08-27T08:50:58.267Z,1005.66
2022-08-27T08:51:58.199Z,1005.7
2022-08-27T08:52:58.100Z,1005.68
2022-08-27T08:53:58.214Z,1005.72
2022-08-27T08:54:58.105Z,1005.66
2022-08-27T08:55:58.124Z,1005.66
2022-08-27T08:56:58.423Z,1005.66
2022-08-27T08:57:58.113Z,1005.69
2022-08-27T08:58:58.255Z,1005.72
2022-08-27T08:59:58.516Z,1005.68
2022-08-27T09:00:58.491Z,1005.64
2022-08-27T09:01:58.219Z,1005.67
2022-08-27T09:02:58.416Z,1005.66
2022-08-27T09:03:58.769Z,1005.7
2022-08-27T09:04:58.118Z,1005.67
2022-08-27T09:05:58.300Z,1005.65
2022-08-27T09:06:58.527Z,1005.69
2022-08-27T09:08:21.543Z,1005.65
2022-08-27T09:08:58.096Z,1005.69
2022-08-27T09:09:58.169Z,1005.66
2022-08-27T09:10:58.414Z,1005.68
2022-08-27T09:11:58.126Z,1005.7
2022-08-27T09:12:58.123Z,1005.66
2022-08-27T09:13:58.119Z,1005.67
2022-08-27T09:14:59.103Z,1005.69
2022-08-27T09:15:58.121Z,1005.66
2022-08-27T09:17:02.685Z,1005.63
2022-08-27T09:17:58.113Z,1005.67
2022-08-27T09:19:01.117Z,1005.62
2022-08-27T09:19:58.106Z,1005.64
2022-08-27T09:20:59.198Z,1005.68
2022-08-27T09:21:59.080Z,1005.66
2022-08-27T09:22:58.105Z,1005.66
2022-08-27T09:23:58.360Z,1005.61
2022-08-27T09:24:58.102Z,1005.62
2022-08-27T09:25:58.097Z,1005.65
2022-08-27T09:26:58.101Z,1005.64
2022-08-27T09:27:58.103Z,1005.69
2022-08-27T09:28:58.103Z,1005.66
2022-08-27T09:29:58.104Z,1005.68
2022-08-27T09:30:58.138Z,1005.73
2022-08-27T09:31:58.117Z,1005.75
2022-08-27T09:32:58.106Z,1005.77
2022-08-27T09:34:01.113Z,1005.75
2022-08-27T09:34:58.136Z,1005.75
2022-08-27T09:35:58.105Z,1005.73
2022-08-27T09:36:58.100Z,1005.74
2022-08-27T09:37:58.110Z,1005.73
2022-08-27T09:39:01.096Z,1005.74
2022-08-27T09:39:58.147Z,1005.75
2022-08-27T09:40:58.096Z,1005.73
2022-08-27T09:41:58.101Z,1005.81
2022-08-27T09:42:58.116Z,1005.78
2022-08-27T09:43:58.211Z,1005.8
2022-08-27T09:44:58.122Z,1005.83
2022-08-27T09:45:58.174Z,1005.79
2022-08-27T09:46:58.106Z,1005.79
2022-08-27T09:47:58.199Z,1005.81
2022-08-27T09:48:58.130Z,1005.8
2022-08-27T09:49:58.412Z,1005.83
2022-08-27T09:50:58.718Z,1005.82
2022-08-27T09:51:58.521Z,1005.82
2022-08-27T09:52:58.447Z,1005.8
2022-08-27T09:53:57.737Z,1005.78
2022-08-27T09:54:57.952Z,1005.79
2022-08-27T09:56:02.423Z,1005.77
2022-08-27T09:56:58.739Z,1005.74
2022-08-27T09:57:58.278Z,1005.73
2022-08-27T09:58:58.508Z,1005.71
2022-08-27T09:59:58.630Z,1005.7
2022-08-27T10:00:58.060Z,1005.69
2022-08-27T10:01:58.201Z,1005.69
2022-08-27T10:02:58.642Z,1005.7
2022-08-27T10:03:58.781Z,1005.71
2022-08-27T10:04:58.293Z,1005.72
2022-08-27T10:05:58.281Z,1005.68
2022-08-27T10:06:58.802Z,1005.7
2022-08-27T10:07:58.498Z,1005.7
2022-08-27T10:08:58.716Z,1005.69
2022-08-27T10:09:58.176Z,1005.69
2022-08-27T10:10:58.245Z,1005.68
2022-08-27T10:11:58.652Z,1005.69
2022-08-27T10:12:58.236Z,1005.66
2022-08-27T10:13:58.552Z,1005.71
2022-08-27T10:14:58.435Z,1005.72
2022-08-27T10:15:58.099Z,1005.68
2022-08-27T10:16:58.465Z,1005.74
2022-08-27T10:17:58.132Z,1005.78
2022-08-27T10:18:58.765Z,1005.77
2022-08-27T10:19:58.236Z,1005.78
2022-08-27T10:21:06.122Z,1005.76
2022-08-27T10:21:58.100Z,1005.76
2022-08-27T10:22:58.107Z,1005.74
2022-08-27T10:23:58.136Z,1005.79
2022-08-27T10:24:58.103Z,1005.81
2022-08-27T10:25:58.104Z,1005.79
2022-08-27T10:26:58.074Z,1005.75
2022-08-27T10:27:58.487Z,1005.76
2022-08-27T10:28:58.424Z,1005.77
2022-08-27T10:29:58.158Z,1005.8
2022-08-27T10:30:58.375Z,1005.8
2022-08-27T10:31:58.312Z,1005.75
2022-08-27T10:32:58.265Z,1005.76
2022-08-27T10:33:58.162Z,1005.77
2022-08-27T10:34:58.371Z,1005.77
2022-08-27T10:35:58.714Z,1005.74
2022-08-27T10:36:58.063Z,1005.77
2022-08-27T10:37:58.599Z,1005.78
2022-08-27T10:38:58.597Z,1005.76
2022-08-27T10:39:58.658Z,1005.75
2022-08-27T10:40:59.028Z,1005.78
2022-08-27T10:41:58.838Z,1005.79
2022-08-27T10:43:01.255Z,1005.75
2022-08-27T10:43:58.355Z,1005.77
2022-08-27T10:44:58.364Z,1005.74
2022-08-27T10:45:58.487Z,1005.76
2022-08-27T10:46:58.109Z,1005.8
2022-08-27T10:47:58.365Z,1005.77
2022-08-27T10:48:58.634Z,1005.75
2022-08-27T10:49:58.233Z,1005.78
2022-08-27T10:50:58.290Z,1005.76
2022-08-27T10:51:58.688Z,1005.75
2022-08-27T10:52:58.330Z,1005.76
2022-08-27T10:53:58.094Z,1005.77
2022-08-27T10:54:58.249Z,1005.75
2022-08-27T10:55:58.099Z,1005.74
2022-08-27T10:57:26.478Z,1005.76
2022-08-27T10:58:02.397Z,1005.79
2022-08-27T10:58:58.106Z,1005.8
2022-08-27T10:59:58.289Z,1005.78
2022-08-27T11:00:58.125Z,1005.79
2022-08-27T11:01:58.129Z,1005.81
2022-08-27T11:02:58.132Z,1005.81
2022-08-27T11:03:58.100Z,1005.84
2022-08-27T11:04:58.102Z,1005.81
2022-08-27T11:05:58.105Z,1005.82
2022-08-27T11:06:58.102Z,1005.8
2022-08-27T11:07:58.137Z,1005.79
2022-08-27T11:08:58.118Z,1005.8
2022-08-27T11:10:01.112Z,1005.83
2022-08-27T11:10:58.112Z,1005.83
2022-08-27T11:12:15.018Z,1005.83
2022-08-27T11:12:58.239Z,1005.82
2022-08-27T11:14:04.101Z,1005.8
2022-08-27T11:14:58.101Z,1005.81
2022-08-27T11:15:58.174Z,1005.81
2022-08-27T11:16:58.162Z,1005.81
2022-08-27T11:17:58.105Z,1005.75
2022-08-27T11:18:58.102Z,1005.72
2022-08-27T11:19:58.104Z,1005.73
2022-08-27T11:20:58.108Z,1005.76
2022-08-27T11:21:58.121Z,1005.71
2022-08-27T11:22:58.099Z,1005.7
2022-08-27T11:23:58.108Z,1005.73
2022-08-27T11:24:58.137Z,1005.74
2022-08-27T11:26:04.130Z,1005.76
2022-08-27T11:26:58.098Z,1005.71
2022-08-27T11:27:58.099Z,1005.73
2022-08-27T11:28:58.091Z,1005.7
2022-08-27T11:30:02.212Z,1005.73
2022-08-27T11:30:58.124Z,1005.7
2022-08-27T11:31:58.139Z,1005.68
2022-08-27T11:32:58.113Z,1005.7
2022-08-27T11:33:58.153Z,1005.69
2022-08-27T11:34:58.134Z,1005.66
2022-08-27T11:35:58.097Z,1005.68
2022-08-27T11:36:58.098Z,1005.69
2022-08-27T11:37:58.090Z,1005.71
2022-08-27T11:38:58.101Z,1005.74
2022-08-27T11:39:58.131Z,1005.74
2022-08-27T11:40:58.105Z,1005.71
2022-08-27T11:41:58.111Z,1005.72
2022-08-27T11:42:58.105Z,1005.73
2022-08-27T11:43:58.154Z,1005.72
2022-08-27T11:44:58.099Z,1005.74
2022-08-27T11:45:58.246Z,1005.76
2022-08-27T11:46:58.150Z,1005.75
2022-08-27T11:47:58.080Z,1005.76
2022-08-27T11:48:58.114Z,1005.76
2022-08-27T11:49:58.106Z,1005.7
2022-08-27T11:50:58.096Z,1005.72
2022-08-27T11:51:58.115Z,1005.72
2022-08-27T11:52:58.109Z,1005.71
2022-08-27T11:53:58.257Z,1005.74
2022-08-27T11:54:58.119Z,1005.72
2022-08-27T11:55:58.111Z,1005.74
2022-08-27T11:56:58.126Z,1005.77
2022-08-27T11:57:58.096Z,1005.77
2022-08-27T11:58:58.103Z,1005.75
2022-08-27T11:59:58.101Z,1005.75
2022-08-27T12:01:04.683Z,1005.76
2022-08-27T12:01:58.089Z,1005.76
2022-08-27T12:02:58.139Z,1005.8
2022-08-27T12:03:58.128Z,1005.78
2022-08-27T12:04:58.126Z,1005.79
2022-08-27T12:05:58.169Z,1005.78
2022-08-27T12:06:58.228Z,1005.78
2022-08-27T12:07:58.110Z,1005.81
2022-08-27T12:08:58.076Z,1005.83